sensor_id;sensor_type;location;lat;lon;timestamp;temperature;humidity
54429;DHT22;40337;52.978;6.310;2023-04-25T00:01:34;7.40;99.90
54429;DHT22;40337;52.978;6.310;2023-04-25T00:04:01;7.40;99.90
54429;DHT22;40337;52.978;6.310;2023-04-25T00:06:28;7.40;99.90
54429;DHT22;40337;52.978;6.310;2023-04-25T00:08:55;7.40;99.90
54429;DHT22;40337;52.978;6.310;2023-04-25T00:11:22;7.40;99.90
54429;DHT22;40337;52.978;6.310;2023-04-25T00:13:47;7.30;99.90
54429;DHT22;40337;52.978;6.310;2023-04-25T00:16:14;7.30;99.90
54429;DHT22;40337;52.978;6.310;2023-04-25T00:18:41;7.30;99.90
54429;DHT22;40337;52.978;6.310;2023-04-25T00:21:07;7.30;99.90
54429;DHT22;40337;52.978;6.310;2023-04-25T00:23:32;7.30;99.90
54429;DHT22;40337;52.978;6.310;2023-04-25T00:25:58;7.20;99.90
54429;DHT22;40337;52.978;6.310;2023-04-25T00:28:23;7.20;99.90
54429;DHT22;40337;52.978;6.310;2023-04-25T00:30:49;7.20;99.90
54429;DHT22;40337;52.978;6.310;2023-04-25T00:33:15;7.10;99.90
54429;DHT22;40337;52.978;6.310;2023-04-25T00:35:41;7.10;99.90
54429;DHT22;40337;52.978;6.310;2023-04-25T00:38:07;7.10;99.90
54429;DHT22;40337;52.978;6.310;2023-04-25T00:40:32;7.10;99.90
54429;DHT22;40337;52.978;6.310;2023-04-25T00:42:58;7.00;99.90
54429;DHT22;40337;52.978;6.310;2023-04-25T00:45:27;7.00;99.90
54429;DHT22;40337;52.978;6.310;2023-04-25T00:47:54;6.90;99.90
54429;DHT22;40337;52.978;6.310;2023-04-25T00:50:20;6.90;99.90
54429;DHT22;40337;52.978;6.310;2023-04-25T00:52:46;6.90;99.90
54429;DHT22;40337;52.978;6.310;2023-04-25T00:55:18;6.80;99.90
54429;DHT22;40337;52.978;6.310;2023-04-25T00:57:45;6.80;99.90
54429;DHT22;40337;52.978;6.310;2023-04-25T01:00:10;6.70;99.90
54429;DHT22;40337;52.978;6.310;2023-04-25T01:02:36;6.70;99.90
54429;DHT22;40337;52.978;6.310;2023-04-25T01:05:03;6.60;99.90
54429;DHT22;40337;52.978;6.310;2023-04-25T01:07:29;6.60;99.90
54429;DHT22;40337;52.978;6.310;2023-04-25T01:09:54;6.60;99.90
54429;DHT22;40337;52.978;6.310;2023-04-25T01:12:20;6.70;99.90
54429;DHT22;40337;52.978;6.310;2023-04-25T01:14:46;6.70;99.90
54429;DHT22;40337;52.978;6.310;2023-04-25T01:17:12;6.70;99.90
54429;DHT22;40337;52.978;6.310;2023-04-25T01:19:38;6.80;99.90
54429;DHT22;40337;52.978;6.310;2023-04-25T01:22:04;6.80;99.90
54429;DHT22;40337;52.978;6.310;2023-04-25T01:24:32;6.80;99.90
54429;DHT22;40337;52.978;6.310;2023-04-25T01:26:58;6.80;99.90
54429;DHT22;40337;52.978;6.310;2023-04-25T01:29:26;6.80;99.90
54429;DHT22;40337;52.978;6.310;2023-04-25T01:31:52;6.80;99.90
54429;DHT22;40337;52.978;6.310;2023-04-25T01:34:18;6.80;99.90
54429;DHT22;40337;52.978;6.310;2023-04-25T01:36:44;6.70;99.90
54429;DHT22;40337;52.978;6.310;2023-04-25T01:39:09;6.80;99.90
54429;DHT22;40337;52.978;6.310;2023-04-25T01:41:35;6.70;99.90
54429;DHT22;40337;52.978;6.310;2023-04-25T01:44:01;6.70;99.90
54429;DHT22;40337;52.978;6.310;2023-04-25T01:46:27;6.70;99.90
54429;DHT22;40337;52.978;6.310;2023-04-25T01:48:53;6.70;99.90
54429;DHT22;40337;52.978;6.310;2023-04-25T01:51:19;6.80;99.90
54429;DHT22;40337;52.978;6.310;2023-04-25T01:53:44;6.80;99.90
54429;DHT22;40337;52.978;6.310;2023-04-25T01:56:10;6.80;99.90
54429;DHT22;40337;52.978;6.310;2023-04-25T01:58:36;6.70;99.90
54429;DHT22;40337;52.978;6.310;2023-04-25T02:01:01;6.80;99.90
54429;DHT22;40337;52.978;6.310;2023-04-25T02:03:27;6.70;99.90
54429;DHT22;40337;52.978;6.310;2023-04-25T02:05:52;6.70;99.90
54429;DHT22;40337;52.978;6.310;2023-04-25T02:08:18;6.70;99.90
54429;DHT22;40337;52.978;6.310;2023-04-25T02:10:44;6.70;99.90
54429;DHT22;40337;52.978;6.310;2023-04-25T02:13:09;6.70;99.90
54429;DHT22;40337;52.978;6.310;2023-04-25T02:15:35;6.70;99.90
54429;DHT22;40337;52.978;6.310;2023-04-25T02:18:01;6.70;99.90
54429;DHT22;40337;52.978;6.310;2023-04-25T02:20:28;6.60;99.90
54429;DHT22;40337;52.978;6.310;2023-04-25T02:22:54;6.60;99.90
54429;DHT22;40337;52.978;6.310;2023-04-25T02:25:20;6.60;99.90
54429;DHT22;40337;52.978;6.310;2023-04-25T02:27:46;6.60;99.90
54429;DHT22;40337;52.978;6.310;2023-04-25T02:30:12;6.60;99.90
54429;DHT22;40337;52.978;6.310;2023-04-25T02:32:39;6.60;99.90
54429;DHT22;40337;52.978;6.310;2023-04-25T02:35:05;6.60;99.90
54429;DHT22;40337;52.978;6.310;2023-04-25T02:37:34;6.60;99.90
54429;DHT22;40337;52.978;6.310;2023-04-25T02:39:59;6.60;99.90
54429;DHT22;40337;52.978;6.310;2023-04-25T02:42:26;6.50;99.90
54429;DHT22;40337;52.978;6.310;2023-04-25T02:44:52;6.60;99.90
54429;DHT22;40337;52.978;6.310;2023-04-25T02:47:17;6.60;99.90
54429;DHT22;40337;52.978;6.310;2023-04-25T02:49:43;6.50;99.90
54429;DHT22;40337;52.978;6.310;2023-04-25T02:52:09;6.50;99.90
54429;DHT22;40337;52.978;6.310;2023-04-25T02:54:34;6.50;99.90
54429;DHT22;40337;52.978;6.310;2023-04-25T02:57:00;6.50;99.90
54429;DHT22;40337;52.978;6.310;2023-04-25T02:59:26;6.50;99.90
54429;DHT22;40337;52.978;6.310;2023-04-25T03:01:51;6.50;99.90
54429;DHT22;40337;52.978;6.310;2023-04-25T03:04:17;6.50;99.90
54429;DHT22;40337;52.978;6.310;2023-04-25T03:06:44;6.20;99.90
54429;DHT22;40337;52.978;6.310;2023-04-25T03:09:10;6.00;99.90
54429;DHT22;40337;52.978;6.310;2023-04-25T03:11:38;5.80;99.90
54429;DHT22;40337;52.978;6.310;2023-04-25T03:14:03;5.60;99.90
54429;DHT22;40337;52.978;6.310;2023-04-25T03:16:29;5.60;99.90
54429;DHT22;40337;52.978;6.310;2023-04-25T03:18:54;5.50;99.90
54429;DHT22;40337;52.978;6.310;2023-04-25T03:21:20;5.50;99.90
54429;DHT22;40337;52.978;6.310;2023-04-25T03:23:46;5.60;99.90
54429;DHT22;40337;52.978;6.310;2023-04-25T03:26:11;5.60;99.90
54429;DHT22;40337;52.978;6.310;2023-04-25T03:28:37;5.60;99.90
54429;DHT22;40337;52.978;6.310;2023-04-25T03:31:02;5.70;99.90
54429;DHT22;40337;52.978;6.310;2023-04-25T03:33:28;5.70;99.90
54429;DHT22;40337;52.978;6.310;2023-04-25T03:35:53;5.70;99.90
54429;DHT22;40337;52.978;6.310;2023-04-25T03:38:19;5.70;99.90
54429;DHT22;40337;52.978;6.310;2023-04-25T03:40:44;5.70;99.90
54429;DHT22;40337;52.978;6.310;2023-04-25T03:43:10;5.70;99.90
54429;DHT22;40337;52.978;6.310;2023-04-25T03:45:36;5.70;99.90
54429;DHT22;40337;52.978;6.310;2023-04-25T03:48:02;5.70;99.90
54429;DHT22;40337;52.978;6.310;2023-04-25T03:50:27;5.70;99.90
54429;DHT22;40337;52.978;6.310;2023-04-25T03:52:53;5.70;99.90
54429;DHT22;40337;52.978;6.310;2023-04-25T03:55:18;5.70;99.90
54429;DHT22;40337;52.978;6.310;2023-04-25T03:57:44;5.60;99.90
54429;DHT22;40337;52.978;6.310;2023-04-25T04:00:10;5.60;99.90
54429;DHT22;40337;52.978;6.310;2023-04-25T04:02:36;5.60;99.90
54429;DHT22;40337;52.978;6.310;2023-04-25T04:05:03;5.50;99.90
54429;DHT22;40337;52.978;6.310;2023-04-25T04:07:29;5.50;99.90
54429;DHT22;40337;52.978;6.310;2023-04-25T04:09:54;5.50;99.90
54429;DHT22;40337;52.978;6.310;2023-04-25T04:12:20;5.50;99.90
54429;DHT22;40337;52.978;6.310;2023-04-25T04:14:46;5.50;99.90
54429;DHT22;40337;52.978;6.310;2023-04-25T04:17:11;5.50;99.90
54429;DHT22;40337;52.978;6.310;2023-04-25T04:19:37;5.50;99.90
54429;DHT22;40337;52.978;6.310;2023-04-25T04:22:02;5.50;99.90
54429;DHT22;40337;52.978;6.310;2023-04-25T04:24:28;5.60;99.90
54429;DHT22;40337;52.978;6.310;2023-04-25T04:26:53;5.60;99.90
54429;DHT22;40337;52.978;6.310;2023-04-25T04:29:19;5.60;99.90
54429;DHT22;40337;52.978;6.310;2023-04-25T04:31:50;5.70;99.90
54429;DHT22;40337;52.978;6.310;2023-04-25T04:34:19;5.70;99.90
54429;DHT22;40337;52.978;6.310;2023-04-25T04:36:45;5.70;99.90
54429;DHT22;40337;52.978;6.310;2023-04-25T04:39:14;5.70;99.90
54429;DHT22;40337;52.978;6.310;2023-04-25T04:41:39;5.70;99.90
54429;DHT22;40337;52.978;6.310;2023-04-25T04:44:05;5.80;99.90
54429;DHT22;40337;52.978;6.310;2023-04-25T04:46:32;5.70;99.90
54429;DHT22;40337;52.978;6.310;2023-04-25T04:49:06;5.70;99.90
54429;DHT22;40337;52.978;6.310;2023-04-25T04:51:32;5.70;99.90
54429;DHT22;40337;52.978;6.310;2023-04-25T04:53:58;5.80;99.90
54429;DHT22;40337;52.978;6.310;2023-04-25T04:56:28;5.80;99.90
54429;DHT22;40337;52.978;6.310;2023-04-25T04:58:54;5.80;99.90
54429;DHT22;40337;52.978;6.310;2023-04-25T05:01:20;5.80;99.90
54429;DHT22;40337;52.978;6.310;2023-04-25T05:03:45;5.80;99.90
54429;DHT22;40337;52.978;6.310;2023-04-25T05:06:11;5.80;99.90
54429;DHT22;40337;52.978;6.310;2023-04-25T05:08:37;5.80;99.90
54429;DHT22;40337;52.978;6.310;2023-04-25T05:11:02;5.80;99.90
54429;DHT22;40337;52.978;6.310;2023-04-25T05:13:28;5.80;99.90
54429;DHT22;40337;52.978;6.310;2023-04-25T05:15:53;5.90;99.90
54429;DHT22;40337;52.978;6.310;2023-04-25T05:18:19;5.90;99.90
54429;DHT22;40337;52.978;6.310;2023-04-25T05:20:45;6.00;99.90
54429;DHT22;40337;52.978;6.310;2023-04-25T05:23:10;6.10;99.90
54429;DHT22;40337;52.978;6.310;2023-04-25T05:25:36;6.10;99.90
54429;DHT22;40337;52.978;6.310;2023-04-25T05:28:01;6.10;99.90
54429;DHT22;40337;52.978;6.310;2023-04-25T05:30:27;6.20;99.90
54429;DHT22;40337;52.978;6.310;2023-04-25T05:32:53;6.20;99.90
54429;DHT22;40337;52.978;6.310;2023-04-25T05:35:18;6.20;99.90
54429;DHT22;40337;52.978;6.310;2023-04-25T05:37:44;6.30;99.90
54429;DHT22;40337;52.978;6.310;2023-04-25T05:40:10;6.30;99.90
54429;DHT22;40337;52.978;6.310;2023-04-25T05:42:35;6.30;99.90
54429;DHT22;40337;52.978;6.310;2023-04-25T05:45:02;6.30;99.90
54429;DHT22;40337;52.978;6.310;2023-04-25T05:47:28;6.40;99.90
54429;DHT22;40337;52.978;6.310;2023-04-25T05:49:53;6.40;99.90
54429;DHT22;40337;52.978;6.310;2023-04-25T05:52:19;6.40;99.90
54429;DHT22;40337;52.978;6.310;2023-04-25T05:54:44;6.40;99.90
54429;DHT22;40337;52.978;6.310;2023-04-25T05:57:22;6.50;99.90
54429;DHT22;40337;52.978;6.310;2023-04-25T05:59:47;6.50;99.90
54429;DHT22;40337;52.978;6.310;2023-04-25T06:02:13;6.50;99.90
54429;DHT22;40337;52.978;6.310;2023-04-25T06:04:38;6.60;99.90
54429;DHT22;40337;52.978;6.310;2023-04-25T06:07:04;6.60;99.90
54429;DHT22;40337;52.978;6.310;2023-04-25T06:09:29;6.60;99.90
54429;DHT22;40337;52.978;6.310;2023-04-25T06:11:55;6.60;99.90
54429;DHT22;40337;52.978;6.310;2023-04-25T06:14:20;6.70;99.90
54429;DHT22;40337;52.978;6.310;2023-04-25T06:16:46;6.80;99.90
54429;DHT22;40337;52.978;6.310;2023-04-25T06:19:12;7.00;99.90
54429;DHT22;40337;52.978;6.310;2023-04-25T06:21:37;7.20;99.90
54429;DHT22;40337;52.978;6.310;2023-04-25T06:24:03;7.30;99.90
54429;DHT22;40337;52.978;6.310;2023-04-25T06:26:28;7.40;99.90
54429;DHT22;40337;52.978;6.310;2023-04-25T06:28:54;7.50;99.90
54429;DHT22;40337;52.978;6.310;2023-04-25T06:31:20;7.50;99.90
54429;DHT22;40337;52.978;6.310;2023-04-25T06:33:45;7.50;99.90
54429;DHT22;40337;52.978;6.310;2023-04-25T06:36:11;7.50;99.90
54429;DHT22;40337;52.978;6.310;2023-04-25T06:38:36;7.30;99.90
54429;DHT22;40337;52.978;6.310;2023-04-25T06:41:02;7.30;99.90
54429;DHT22;40337;52.978;6.310;2023-04-25T06:43:28;7.40;99.90
54429;DHT22;40337;52.978;6.310;2023-04-25T06:45:53;7.40;99.90
54429;DHT22;40337;52.978;6.310;2023-04-25T06:48:19;7.40;99.90
54429;DHT22;40337;52.978;6.310;2023-04-25T06:50:45;7.50;99.90
54429;DHT22;40337;52.978;6.310;2023-04-25T06:53:10;7.50;99.90
54429;DHT22;40337;52.978;6.310;2023-04-25T06:55:37;7.50;99.90
54429;DHT22;40337;52.978;6.310;2023-04-25T06:58:03;7.50;99.90
54429;DHT22;40337;52.978;6.310;2023-04-25T07:00:29;7.70;99.90
54429;DHT22;40337;52.978;6.310;2023-04-25T07:02:55;7.70;99.90
54429;DHT22;40337;52.978;6.310;2023-04-25T07:05:21;7.80;99.90
54429;DHT22;40337;52.978;6.310;2023-04-25T07:07:46;7.70;99.90
54429;DHT22;40337;52.978;6.310;2023-04-25T07:10:12;7.70;99.90
54429;DHT22;40337;52.978;6.310;2023-04-25T07:12:37;7.80;99.90
54429;DHT22;40337;52.978;6.310;2023-04-25T07:15:03;8.20;99.90
54429;DHT22;40337;52.978;6.310;2023-04-25T07:17:31;8.80;99.90
54429;DHT22;40337;52.978;6.310;2023-04-25T07:19:58;9.20;99.90
54429;DHT22;40337;52.978;6.310;2023-04-25T07:22:23;9.60;99.90
54429;DHT22;40337;52.978;6.310;2023-04-25T07:24:49;9.80;99.90
54429;DHT22;40337;52.978;6.310;2023-04-25T07:27:15;9.70;99.90
54429;DHT22;40337;52.978;6.310;2023-04-25T07:29:41;9.10;99.90
54429;DHT22;40337;52.978;6.310;2023-04-25T07:32:07;8.70;99.90
54429;DHT22;40337;52.978;6.310;2023-04-25T07:34:33;8.40;99.90
54429;DHT22;40337;52.978;6.310;2023-04-25T07:37:02;8.10;99.90
54429;DHT22;40337;52.978;6.310;2023-04-25T07:39:28;7.80;99.90
54429;DHT22;40337;52.978;6.310;2023-04-25T07:41:53;7.70;99.90
54429;DHT22;40337;52.978;6.310;2023-04-25T07:44:19;7.90;99.90
54429;DHT22;40337;52.978;6.310;2023-04-25T07:46:45;8.00;99.90
54429;DHT22;40337;52.978;6.310;2023-04-25T07:49:10;8.70;99.90
54429;DHT22;40337;52.978;6.310;2023-04-25T07:51:36;9.50;99.90
54429;DHT22;40337;52.978;6.310;2023-04-25T07:54:02;10.20;99.90
54429;DHT22;40337;52.978;6.310;2023-04-25T07:56:27;10.60;99.90
54429;DHT22;40337;52.978;6.310;2023-04-25T07:58:53;10.70;99.90
54429;DHT22;40337;52.978;6.310;2023-04-25T08:01:18;11.00;99.90
54429;DHT22;40337;52.978;6.310;2023-04-25T08:03:46;10.90;99.90
54429;DHT22;40337;52.978;6.310;2023-04-25T08:06:12;10.70;99.90
54429;DHT22;40337;52.978;6.310;2023-04-25T08:08:37;10.70;99.90
54429;DHT22;40337;52.978;6.310;2023-04-25T08:11:03;11.00;99.90
54429;DHT22;40337;52.978;6.310;2023-04-25T08:13:29;11.10;99.90
54429;DHT22;40337;52.978;6.310;2023-04-25T08:15:54;11.10;99.90
54429;DHT22;40337;52.978;6.310;2023-04-25T08:18:20;11.20;99.90
54429;DHT22;40337;52.978;6.310;2023-04-25T08:20:45;11.30;99.90
54429;DHT22;40337;52.978;6.310;2023-04-25T08:23:11;11.60;99.90
54429;DHT22;40337;52.978;6.310;2023-04-25T08:25:36;12.00;99.90
54429;DHT22;40337;52.978;6.310;2023-04-25T08:28:02;12.50;99.90
54429;DHT22;40337;52.978;6.310;2023-04-25T08:30:28;12.40;99.90
54429;DHT22;40337;52.978;6.310;2023-04-25T08:32:54;12.50;99.90
54429;DHT22;40337;52.978;6.310;2023-04-25T08:35:20;12.20;99.90
54429;DHT22;40337;52.978;6.310;2023-04-25T08:37:46;12.30;99.90
54429;DHT22;40337;52.978;6.310;2023-04-25T08:40:14;12.10;99.90
54429;DHT22;40337;52.978;6.310;2023-04-25T08:42:41;11.80;99.90
54429;DHT22;40337;52.978;6.310;2023-04-25T08:45:08;11.30;99.90
54429;DHT22;40337;52.978;6.310;2023-04-25T08:47:34;10.80;99.90
54429;DHT22;40337;52.978;6.310;2023-04-25T08:50:02;10.20;99.90
54429;DHT22;40337;52.978;6.310;2023-04-25T08:52:32;9.70;99.90
54429;DHT22;40337;52.978;6.310;2023-04-25T08:55:01;9.30;99.90
54429;DHT22;40337;52.978;6.310;2023-04-25T08:57:27;9.00;99.90
54429;DHT22;40337;52.978;6.310;2023-04-25T08:59:54;8.80;99.90
54429;DHT22;40337;52.978;6.310;2023-04-25T09:02:20;8.80;99.90
54429;DHT22;40337;52.978;6.310;2023-04-25T09:04:46;9.40;99.90
54429;DHT22;40337;52.978;6.310;2023-04-25T09:07:12;10.30;99.90
54429;DHT22;40337;52.978;6.310;2023-04-25T09:09:40;11.10;99.90
54429;DHT22;40337;52.978;6.310;2023-04-25T09:12:07;11.80;99.90
54429;DHT22;40337;52.978;6.310;2023-04-25T09:14:33;11.90;99.90
54429;DHT22;40337;52.978;6.310;2023-04-25T09:17:00;11.50;99.90
54429;DHT22;40337;52.978;6.310;2023-04-25T09:19:31;12.10;99.90
54429;DHT22;40337;52.978;6.310;2023-04-25T09:21:58;12.60;99.90
54429;DHT22;40337;52.978;6.310;2023-04-25T09:24:43;12.70;99.90
54429;DHT22;40337;52.978;6.310;2023-04-25T09:27:13;12.50;99.90
54429;DHT22;40337;52.978;6.310;2023-04-25T09:29:40;12.00;99.90
54429;DHT22;40337;52.978;6.310;2023-04-25T09:32:19;11.50;99.90
54429;DHT22;40337;52.978;6.310;2023-04-25T09:34:50;11.10;99.90
54429;DHT22;40337;52.978;6.310;2023-04-25T09:37:24;10.20;99.90
54429;DHT22;40337;52.978;6.310;2023-04-25T09:39:53;9.30;99.90
54429;DHT22;40337;52.978;6.310;2023-04-25T09:42:22;8.90;99.90
54429;DHT22;40337;52.978;6.310;2023-04-25T09:44:52;8.70;99.90
54429;DHT22;40337;52.978;6.310;2023-04-25T09:47:18;8.70;99.90
54429;DHT22;40337;52.978;6.310;2023-04-25T09:49:44;8.80;99.90
54429;DHT22;40337;52.978;6.310;2023-04-25T09:52:14;9.40;99.90
54429;DHT22;40337;52.978;6.310;2023-04-25T09:54:41;10.30;99.90
54429;DHT22;40337;52.978;6.310;2023-04-25T09:57:11;10.90;99.90
54429;DHT22;40337;52.978;6.310;2023-04-25T09:59:39;11.30;99.90
54429;DHT22;40337;52.978;6.310;2023-04-25T10:02:07;11.90;99.90
54429;DHT22;40337;52.978;6.310;2023-04-25T10:04:34;12.40;99.90
54429;DHT22;40337;52.978;6.310;2023-04-25T10:07:03;12.80;99.90
54429;DHT22;40337;52.978;6.310;2023-04-25T10:09:31;12.90;99.90
54429;DHT22;40337;52.978;6.310;2023-04-25T10:11:59;12.90;99.90
54429;DHT22;40337;52.978;6.310;2023-04-25T10:14:26;12.50;99.90
54429;DHT22;40337;52.978;6.310;2023-04-25T10:16:52;12.10;99.90
54429;DHT22;40337;52.978;6.310;2023-04-25T10:19:19;11.70;99.90
54429;DHT22;40337;52.978;6.310;2023-04-25T10:21:55;11.80;99.90
54429;DHT22;40337;52.978;6.310;2023-04-25T10:24:24;11.80;99.90
54429;DHT22;40337;52.978;6.310;2023-04-25T10:26:51;12.50;99.90
54429;DHT22;40337;52.978;6.310;2023-04-25T10:29:25;12.70;99.90
54429;DHT22;40337;52.978;6.310;2023-04-25T10:31:51;12.90;99.90
54429;DHT22;40337;52.978;6.310;2023-04-25T10:34:17;13.10;99.90
54429;DHT22;40337;52.978;6.310;2023-04-25T10:36:44;13.10;99.90
54429;DHT22;40337;52.978;6.310;2023-04-25T10:39:24;13.30;99.90
54429;DHT22;40337;52.978;6.310;2023-04-25T10:42:02;12.70;99.90
54429;DHT22;40337;52.978;6.310;2023-04-25T10:44:29;12.20;99.90
54429;DHT22;40337;52.978;6.310;2023-04-25T10:46:56;12.00;99.90
54429;DHT22;40337;52.978;6.310;2023-04-25T10:49:36;12.10;99.90
54429;DHT22;40337;52.978;6.310;2023-04-25T10:52:29;12.50;99.90
54429;DHT22;40337;52.978;6.310;2023-04-25T10:54:56;12.30;99.90
54429;DHT22;40337;52.978;6.310;2023-04-25T11:00:05;12.20;99.90
54429;DHT22;40337;52.978;6.310;2023-04-25T11:02:31;11.80;99.90
54429;DHT22;40337;52.978;6.310;2023-04-25T11:04:57;11.60;99.90
54429;DHT22;40337;52.978;6.310;2023-04-25T11:07:50;12.00;99.90
54429;DHT22;40337;52.978;6.310;2023-04-25T11:10:17;12.20;99.90
54429;DHT22;40337;52.978;6.310;2023-04-25T11:12:44;11.80;99.90
54429;DHT22;40337;52.978;6.310;2023-04-25T11:15:10;11.50;99.90
54429;DHT22;40337;52.978;6.310;2023-04-25T11:17:35;11.00;99.90
54429;DHT22;40337;52.978;6.310;2023-04-25T11:20:01;10.70;99.90
54429;DHT22;40337;52.978;6.310;2023-04-25T11:22:29;11.30;99.90
54429;DHT22;40337;52.978;6.310;2023-04-25T11:24:55;12.10;99.90
54429;DHT22;40337;52.978;6.310;2023-04-25T11:27:21;12.60;99.90
54429;DHT22;40337;52.978;6.310;2023-04-25T11:29:46;11.90;99.90
54429;DHT22;40337;52.978;6.310;2023-04-25T11:32:15;11.20;99.90
54429;DHT22;40337;52.978;6.310;2023-04-25T11:34:43;10.80;99.90
54429;DHT22;40337;52.978;6.310;2023-04-25T11:37:09;10.40;99.90
54429;DHT22;40337;52.978;6.310;2023-04-25T11:39:37;10.20;99.90
54429;DHT22;40337;52.978;6.310;2023-04-25T11:42:04;10.40;99.90
54429;DHT22;40337;52.978;6.310;2023-04-25T11:44:31;10.70;99.90
54429;DHT22;40337;52.978;6.310;2023-04-25T11:46:56;10.50;99.90
54429;DHT22;40337;52.978;6.310;2023-04-25T11:49:22;10.30;99.90
54429;DHT22;40337;52.978;6.310;2023-04-25T11:51:48;9.90;99.90
54429;DHT22;40337;52.978;6.310;2023-04-25T11:54:14;9.50;99.90
54429;DHT22;40337;52.978;6.310;2023-04-25T11:56:44;9.40;99.90
54429;DHT22;40337;52.978;6.310;2023-04-25T11:59:10;9.50;99.90
54429;DHT22;40337;52.978;6.310;2023-04-25T12:01:39;10.30;99.90
54429;DHT22;40337;52.978;6.310;2023-04-25T12:06:44;11.50;99.90
54429;DHT22;40337;52.978;6.310;2023-04-25T12:09:14;11.90;99.90
54429;DHT22;40337;52.978;6.310;2023-04-25T12:11:45;11.90;99.90
54429;DHT22;40337;52.978;6.310;2023-04-25T12:14:11;11.00;99.90
54429;DHT22;40337;52.978;6.310;2023-04-25T12:16:47;10.40;99.90
54429;DHT22;40337;52.978;6.310;2023-04-25T12:19:14;9.80;99.90
54429;DHT22;40337;52.978;6.310;2023-04-25T12:21:40;10.10;99.90
54429;DHT22;40337;52.978;6.310;2023-04-25T12:24:17;10.60;99.90
54429;DHT22;40337;52.978;6.310;2023-04-25T12:27:03;10.60;99.90
54429;DHT22;40337;52.978;6.310;2023-04-25T12:29:32;10.80;99.90
54429;DHT22;40337;52.978;6.310;2023-04-25T12:31:58;10.80;99.90
54429;DHT22;40337;52.978;6.310;2023-04-25T12:34:25;10.60;99.90
54429;DHT22;40337;52.978;6.310;2023-04-25T12:36:52;10.40;99.90
54429;DHT22;40337;52.978;6.310;2023-04-25T12:39:22;10.30;99.90
54429;DHT22;40337;52.978;6.310;2023-04-25T12:41:48;10.20;99.90
54429;DHT22;40337;52.978;6.310;2023-04-25T12:44:15;10.30;99.90
54429;DHT22;40337;52.978;6.310;2023-04-25T12:46:41;10.60;99.90
54429;DHT22;40337;52.978;6.310;2023-04-25T12:49:07;11.00;99.90
54429;DHT22;40337;52.978;6.310;2023-04-25T12:51:36;11.50;99.90
54429;DHT22;40337;52.978;6.310;2023-04-25T12:54:03;11.80;99.90
54429;DHT22;40337;52.978;6.310;2023-04-25T12:56:30;12.30;99.90
54429;DHT22;40337;52.978;6.310;2023-04-25T12:58:55;12.60;99.90
54429;DHT22;40337;52.978;6.310;2023-04-25T13:01:21;12.60;99.90
54429;DHT22;40337;52.978;6.310;2023-04-25T13:03:47;12.20;99.90
54429;DHT22;40337;52.978;6.310;2023-04-25T13:06:14;11.90;99.90
54429;DHT22;40337;52.978;6.310;2023-04-25T13:08:39;11.70;99.90
54429;DHT22;40337;52.978;6.310;2023-04-25T13:11:06;11.60;99.90
54429;DHT22;40337;52.978;6.310;2023-04-25T13:13:32;11.50;99.90
54429;DHT22;40337;52.978;6.310;2023-04-25T13:16:06;11.50;99.90
54429;DHT22;40337;52.978;6.310;2023-04-25T13:18:32;11.70;99.90
54429;DHT22;40337;52.978;6.310;2023-04-25T13:20:59;12.00;99.90
54429;DHT22;40337;52.978;6.310;2023-04-25T13:23:26;12.50;99.90
54429;DHT22;40337;52.978;6.310;2023-04-25T13:25:52;12.80;99.90
54429;DHT22;40337;52.978;6.310;2023-04-25T13:28:18;13.20;99.90
54429;DHT22;40337;52.978;6.310;2023-04-25T13:30:44;13.30;99.90
54429;DHT22;40337;52.978;6.310;2023-04-25T13:33:10;13.50;99.90
54429;DHT22;40337;52.978;6.310;2023-04-25T13:35:37;13.10;99.50
54429;DHT22;40337;52.978;6.310;2023-04-25T13:38:03;12.70;99.90
54429;DHT22;40337;52.978;6.310;2023-04-25T13:40:28;12.10;99.90
54429;DHT22;40337;52.978;6.310;2023-04-25T13:42:55;11.70;99.90
54429;DHT22;40337;52.978;6.310;2023-04-25T13:45:21;11.30;99.90
54429;DHT22;40337;52.978;6.310;2023-04-25T13:47:46;11.40;99.90
54429;DHT22;40337;52.978;6.310;2023-04-25T13:50:12;11.60;99.90
54429;DHT22;40337;52.978;6.310;2023-04-25T13:52:39;11.90;99.90
54429;DHT22;40337;52.978;6.310;2023-04-25T13:55:05;12.30;99.90
54429;DHT22;40337;52.978;6.310;2023-04-25T13:57:32;12.40;99.90
54429;DHT22;40337;52.978;6.310;2023-04-25T13:59:58;12.10;99.90
54429;DHT22;40337;52.978;6.310;2023-04-25T14:02:24;11.80;99.90
54429;DHT22;40337;52.978;6.310;2023-04-25T14:04:50;11.60;99.90
54429;DHT22;40337;52.978;6.310;2023-04-25T14:07:16;11.30;99.90
54429;DHT22;40337;52.978;6.310;2023-04-25T14:09:42;10.80;99.90
54429;DHT22;40337;52.978;6.310;2023-04-25T14:12:07;10.80;99.90
54429;DHT22;40337;52.978;6.310;2023-04-25T14:14:33;10.80;99.90
54429;DHT22;40337;52.978;6.310;2023-04-25T14:16:58;11.30;99.90
54429;DHT22;40337;52.978;6.310;2023-04-25T14:19:24;11.30;99.90
54429;DHT22;40337;52.978;6.310;2023-04-25T14:21:50;11.20;99.90
54429;DHT22;40337;52.978;6.310;2023-04-25T14:24:15;10.90;99.90
54429;DHT22;40337;52.978;6.310;2023-04-25T14:26:41;10.70;99.90
54429;DHT22;40337;52.978;6.310;2023-04-25T14:29:08;10.50;99.90
54429;DHT22;40337;52.978;6.310;2023-04-25T14:31:34;10.50;99.90
54429;DHT22;40337;52.978;6.310;2023-04-25T14:34:01;10.90;99.90
54429;DHT22;40337;52.978;6.310;2023-04-25T14:36:28;11.30;99.90
54429;DHT22;40337;52.978;6.310;2023-04-25T14:38:54;11.20;99.90
54429;DHT22;40337;52.978;6.310;2023-04-25T14:41:20;11.30;99.90
54429;DHT22;40337;52.978;6.310;2023-04-25T14:43:46;11.20;99.90
54429;DHT22;40337;52.978;6.310;2023-04-25T14:46:12;11.30;99.90
54429;DHT22;40337;52.978;6.310;2023-04-25T14:48:38;11.40;99.90
54429;DHT22;40337;52.978;6.310;2023-04-25T14:51:04;11.20;99.90
54429;DHT22;40337;52.978;6.310;2023-04-25T14:53:30;11.20;99.90
54429;DHT22;40337;52.978;6.310;2023-04-25T14:55:56;11.30;99.90
54429;DHT22;40337;52.978;6.310;2023-04-25T14:58:22;11.30;99.90
54429;DHT22;40337;52.978;6.310;2023-04-25T15:00:48;11.30;99.70
54429;DHT22;40337;52.978;6.310;2023-04-25T15:03:13;11.00;99.70
54429;DHT22;40337;52.978;6.310;2023-04-25T15:05:41;11.00;99.90
54429;DHT22;40337;52.978;6.310;2023-04-25T15:08:07;10.80;99.70
54429;DHT22;40337;52.978;6.310;2023-04-25T15:10:32;10.80;99.60
54429;DHT22;40337;52.978;6.310;2023-04-25T15:12:58;10.70;99.30
54429;DHT22;40337;52.978;6.310;2023-04-25T15:15:23;10.70;99.90
54429;DHT22;40337;52.978;6.310;2023-04-25T15:17:49;10.80;99.90
54429;DHT22;40337;52.978;6.310;2023-04-25T15:20:15;10.70;99.90
54429;DHT22;40337;52.978;6.310;2023-04-25T15:22:43;10.60;99.90
54429;DHT22;40337;52.978;6.310;2023-04-25T15:25:10;10.40;99.90
54429;DHT22;40337;52.978;6.310;2023-04-25T15:27:36;10.10;99.90
54429;DHT22;40337;52.978;6.310;2023-04-25T15:30:09;10.10;99.90
54429;DHT22;40337;52.978;6.310;2023-04-25T15:32:36;10.10;99.90
54429;DHT22;40337;52.978;6.310;2023-04-25T15:35:06;10.10;99.90
54429;DHT22;40337;52.978;6.310;2023-04-25T15:37:33;10.00;99.90
54429;DHT22;40337;52.978;6.310;2023-04-25T15:40:04;10.10;99.90
54429;DHT22;40337;52.978;6.310;2023-04-25T15:42:38;10.20;99.90